Time;durP1;ratioP1;P1;durP2;ratioP2;P2;SDS_P1;SDS_P2;PMS_P1;PMS_P2;Temp;Humidity;BMP_temperature;BMP_pressure;BME280_temperature;BME280_humidity;BME280_pressure;Samples;Min_cycle;Max_cycle;Signal;HPM_P1;HPM_P2
2022/07/15 00:01:54;;;;;;;4.00;1.98;;;563.50;947.20;;;;;;5033454;28;20018;-76
2022/07/15 00:04:20;;;;;;;3.72;2.00;;;563.40;947.20;;;;;;5032936;28;20075;-76
2022/07/15 00:06:45;;;;;;;7.50;2.15;;;563.30;947.20;;;;;;5034385;28;20044;-75
2022/07/15 00:09:11;;;;;;;6.05;2.15;;;563.50;947.20;;;;;;5033919;28;20045;-77
2022/07/15 00:11:37;;;;;;;4.53;1.98;;;563.30;972.80;;;;;;5034477;28;20033;-77
2022/07/15 00:14:03;;;;;;;4.93;2.60;;;563.50;947.20;;;;;;5034339;28;20416;-77
2022/07/15 00:16:28;;;;;;;3.25;2.00;;;563.70;921.60;;;;;;5034393;28;20040;-77
2022/07/15 00:18:54;;;;;;;4.10;1.90;;;563.30;972.80;;;;;;5033335;28;20022;-78
2022/07/15 00:21:20;;;;;;;5.55;2.38;;;563.20;972.80;;;;;;5032733;28;20415;-78
2022/07/15 00:23:46;;;;;;;6.30;2.30;;;538.00;1024.00;;;;;;5034405;28;20032;-79
2022/07/15 00:26:11;;;;;;;4.60;2.10;;;537.70;1049.60;;;;;;5032796;28;20397;-79
2022/07/15 00:28:37;;;;;;;8.38;2.53;;;537.60;1049.60;;;;;;5033029;28;20065;-77
2022/07/15 00:31:03;;;;;;;8.02;2.65;;;512.90;1024.00;;;;;;5034866;28;20392;-79
2022/07/15 00:33:29;;;;;;;7.13;2.33;;;537.80;1024.00;;;;;;5033120;28;20387;-79
2022/07/15 00:35:54;;;;;;;9.45;2.38;;;537.90;1024.00;;;;;;5034603;28;20108;-78
2022/07/15 00:38:20;;;;;;;5.72;3.17;;;537.90;1024.00;;;;;;5033676;28;20021;-78
2022/07/15 00:40:48;;;;;;;5.93;2.40;;;537.60;1049.60;;;;;;5034456;28;20480;-76
2022/07/15 00:43:16;;;;;;;3.83;2.58;;;512.80;1024.00;;;;;;5020599;28;20060;-76
2022/07/15 00:45:42;;;;;;;7.80;3.30;;;512.50;1049.60;;;;;;5033859;28;20404;-76
2022/07/15 00:48:08;;;;;;;6.43;2.75;;;512.30;1075.20;;;;;;5033666;28;20029;-77
2022/07/15 00:50:34;;;;;;;2.78;2.05;;;;;;;;;;5032771;28;20067;-79
2022/07/15 00:53:04;;;;;;;6.60;2.63;;;;;;;;;;5033742;28;20476;-77
2022/07/15 00:55:37;;;;;;;5.10;2.67;;;;;;;;;;5033432;28;20032;-78
2022/07/15 00:58:04;;;;;;;8.73;3.90;;;;;;;;;;5033773;28;20530;-76
2022/07/15 01:00:31;;;;;;;5.75;2.50;;;;;;;;;;5033933;28;20032;-78
2022/07/15 01:02:58;;;;;;;5.68;2.67;;;;;;;;;;5033254;28;20037;-77
2022/07/15 01:05:24;;;;;;;5.57;2.33;;;;;;;;;;5026909;28;20562;-78
2022/07/15 01:07:50;;;;;;;6.03;2.53;;;;;;;;;;5026676;28;20088;-77
2022/07/15 01:10:18;;;;;;;7.70;3.00;;;;;;;;;;5033043;28;20091;-78
2022/07/15 01:12:46;;;;;;;4.68;2.53;;;;;;;;;;5032360;28;20028;-79
2022/07/15 01:15:13;;;;;;;5.43;2.70;;;;;;;;;;5031902;28;20029;-78
2022/07/15 01:17:38;;;;;;;4.55;2.47;;;538.30;972.80;;;;;;5033267;28;20026;-77
2022/07/15 01:20:06;;;;;;;8.50;3.70;;;538.40;972.80;;;;;;5033454;28;20048;-78
2022/07/15 01:22:32;;;;;;;8.07;4.65;;;;;;;;;;5032950;28;20021;-76
2022/07/15 01:24:58;;;;;;;4.53;2.80;;;;;;;;;;5033250;28;20067;-76
2022/07/15 01:27:25;;;;;;;9.55;3.08;;;;;;;;;;5032674;28;20109;-77
2022/07/15 01:29:51;;;;;;;5.55;2.80;;;;;;;;;;5033031;28;20024;-77
2022/07/15 01:32:17;;;;;;;7.03;2.75;;;;;;;;;;5033216;28;20032;-76
2022/07/15 01:34:43;;;;;;;8.13;5.40;;;563.90;947.20;;;;;;5032972;28;20100;-77
2022/07/15 01:37:09;;;;;;;8.90;3.10;;;563.70;921.60;;;;;;5032990;28;20093;-76
2022/07/15 01:39:35;;;;;;;8.05;2.80;;;563.60;947.20;;;;;;5032837;28;20026;-77
2022/07/15 01:42:00;;;;;;;8.52;2.85;;;563.50;972.80;;;;;;5032911;28;20029;-78
2022/07/15 01:44:26;;;;;;;6.57;3.67;;;563.40;972.80;;;;;;5032437;28;20018;-78
2022/07/15 01:46:52;;;;;;;5.13;3.28;;;563.40;998.40;;;;;;5033459;28;20022;-77
2022/07/15 01:49:25;;;;;;;6.57;3.50;;;563.40;972.80;;;;;;5033099;28;20115;-78
2022/07/15 01:51:55;;;;;;;6.88;3.95;;;563.50;972.80;;;;;;5031475;28;20104;-76
2022/07/15 01:54:26;;;;;;;8.10;3.83;;;563.50;998.40;;;;;;5032856;28;20021;-76
2022/07/15 01:56:53;;;;;;;11.30;3.92;;;563.50;998.40;;;;;;5033539;28;20022;-77
2022/07/15 01:59:24;;;;;;;8.63;5.57;;;563.50;998.40;;;;;;5032461;28;20034;-77
2022/07/15 02:01:51;;;;;;;6.47;3.70;;;563.50;998.40;;;;;;5031192;28;20022;-78
2022/07/15 02:04:17;;;;;;;5.38;3.50;;;563.50;972.80;;;;;;5032634;28;20022;-77
2022/07/15 02:06:43;;;;;;;4.93;3.55;;;563.40;972.80;;;;;;5031504;28;20026;-77
2022/07/15 02:09:09;;;;;;;10.75;3.47;;;563.40;998.40;;;;;;5032582;28;20558;-76
2022/07/15 02:11:35;;;;;;;7.13;4.10;;;;;;;;;;5031624;28;20036;-75
2022/07/15 02:14:02;;;;;;;7.85;3.33;;;563.60;998.40;;;;;;5022106;28;20018;-76
2022/07/15 02:16:31;;;;;;;8.57;3.78;;;563.40;998.40;;;;;;5026777;28;20026;-76
2022/07/15 02:18:58;;;;;;;8.40;3.08;;;;;;;;;;5031010;28;20028;-77
2022/07/15 02:21:26;;;;;;;4.82;2.95;;;563.50;998.40;;;;;;5032309;28;20024;-77
2022/07/15 02:23:52;;;;;;;4.07;3.08;;;563.40;998.40;;;;;;5030929;28;20499;-77
2022/07/15 02:26:18;;;;;;;8.80;3.50;;;563.30;998.40;;;;;;5031911;28;20033;-77
2022/07/15 02:28:44;;;;;;;7.05;3.80;;;;;;;;;;5032291;28;20025;-78
2022/07/15 02:31:11;;;;;;;7.43;3.00;;;;;;;;;;5030982;28;20048;-77
2022/07/15 02:33:37;;;;;;;5.60;2.83;;;;;;;;;;5031935;28;20029;-76
2022/07/15 02:36:03;;;;;;;7.97;2.70;;;;;;;;;;5031769;28;20427;-77
2022/07/15 02:38:29;;;;;;;7.05;2.97;;;;;;;;;;5031926;28;20576;-78
2022/07/15 02:40:55;;;;;;;11.48;3.30;;;;;;;;;;5031260;28;20400;-78
2022/07/15 02:43:21;;;;;;;9.57;3.28;;;;;;;;;;5031912;28;20026;-78
2022/07/15 02:45:47;;;;;;;5.82;3.20;;;;;;;;;;5031720;28;20341;-78
2022/07/15 02:48:15;;;;;;;6.30;3.45;;;;;;;;;;5031321;28;20461;-78
2022/07/15 02:50:41;;;;;;;11.98;3.38;;;;;;;;;;5031851;28;20025;-78
2022/07/15 02:53:07;;;;;;;10.45;3.97;;;;;;;;;;5031485;28;20014;-77
2022/07/15 02:55:34;;;;;;;9.52;4.38;;;;;;;;;;5031529;28;20415;-79
2022/07/15 02:58:00;;;;;;;5.75;3.60;;;;;;;;;;5030199;28;20116;-78
2022/07/15 03:00:26;;;;;;;8.13;3.20;;;;;;;;;;5031775;28;20521;-79
2022/07/15 03:02:52;;;;;;;7.00;4.15;;;;;;;;;;5031082;28;20018;-77
2022/07/15 03:05:18;;;;;;;8.40;3.75;;;;;;;;;;5031615;28;20033;-77
2022/07/15 03:07:45;;;;;;;6.55;3.28;;;;;;;;;;5030235;28;20141;-78
2022/07/15 03:10:11;;;;;;;11.40;4.55;;;;;;;;;;5031354;28;20140;-79
2022/07/15 03:12:38;;;;;;;4.65;2.83;;;;;;;;;;5031207;28;20393;-78
2022/07/15 03:15:04;;;;;;;7.63;3.20;;;;;;;;;;5031234;28;20030;-77
2022/07/15 03:17:30;;;;;;;8.98;3.40;;;;;;;;;;5031779;28;20058;-76
2022/07/15 03:19:57;;;;;;;5.95;3.42;;;;;;;;;;5030830;28;20026;-78
2022/07/15 03:22:23;;;;;;;8.82;5.43;;;;;;;;;;5031400;28;20022;-78
2022/07/15 03:24:49;;;;;;;6.65;3.45;;;;;;;;;;5030050;28;20030;-79
2022/07/15 03:27:16;;;;;;;10.45;5.18;;;;;;;;;;5031104;28;20152;-77
2022/07/15 03:29:42;;;;;;;4.53;3.22;;;;;;;;;;5031322;28;20102;-78
2022/07/15 03:32:10;;;;;;;9.35;3.90;;;;;;;;;;5031171;28;20457;-78
2022/07/15 03:34:36;;;;;;;6.45;3.63;;;;;;;;;;5029683;28;20084;-78
2022/07/15 03:37:02;;;;;;;13.00;3.97;;;;;;;;;;5030833;28;20032;-77
2022/07/15 03:39:28;;;;;;;14.30;3.95;;;;;;;;;;5032196;28;20018;-77
2022/07/15 03:41:54;;;;;;;8.27;3.30;;;;;;;;;;5031316;28;20108;-77
2022/07/15 03:44:20;;;;;;;9.88;3.50;;;;;;;;;;5030654;28;20053;-76
2022/07/15 03:46:46;;;;;;;7.70;3.67;;;;;;;;;;5026620;28;20037;-76
2022/07/15 03:49:13;;;;;;;14.18;4.18;;;;;;;;;;5024704;28;20018;-79
2022/07/15 03:51:39;;;;;;;11.55;4.25;;;;;;;;;;5030841;28;20022;-76
2022/07/15 03:54:06;;;;;;;11.80;6.47;;;;;;;;;;5030887;28;20022;-75
2022/07/15 03:56:33;;;;;;;12.75;6.30;;;;;;;;;;5030963;28;20009;-78
2022/07/15 03:58:59;;;;;;;13.98;5.53;;;;;;;;;;5019740;28;20461;-77
2022/07/15 04:01:26;;;;;;;14.70;7.90;;;;;;;;;;5027148;28;20076;-77
2022/07/15 04:03:53;;;;;;;9.43;6.05;;;;;;;;;;5030577;28;20057;-79
2022/07/15 04:06:19;;;;;;;10.98;5.63;;;;;;;;;;5030434;28;20044;-76
2022/07/15 04:08:46;;;;;;;10.10;5.70;;;;;;;;;;5030996;28;20488;-75
2022/07/15 04:11:12;;;;;;;11.80;6.07;;;;;;;;;;5030576;28;20017;-77
2022/07/15 04:13:38;;;;;;;11.55;5.35;;;537.70;1126.40;;;;;;5030697;28;20032;-79
2022/07/15 04:16:06;;;;;;;9.45;5.65;;;537.70;1126.40;;;;;;5029585;28;20030;-77
2022/07/15 04:18:32;;;;;;;10.35;5.53;;;;;;;;;;5015581;28;20028;-75
2022/07/15 04:20:58;;;;;;;33.97;19.80;;;;;;;;;;5030769;28;20024;-78
2022/07/15 04:23:25;;;;;;;10.77;5.50;;;538.00;1100.80;;;;;;5030897;28;20072;-77
2022/07/15 04:25:52;;;;;;;11.95;6.15;;;537.80;1126.40;;;;;;5030841;28;20082;-75
2022/07/15 04:28:18;;;;;;;12.02;4.82;;;512.90;1126.40;;;;;;5030640;28;20045;-75
2022/07/15 04:30:44;;;;;;;11.13;5.22;;;512.70;1152.00;;;;;;5030357;28;20030;-76
2022/07/15 04:33:10;;;;;;;17.88;9.40;;;512.60;1152.00;;;;;;5034939;28;20084;-76
2022/07/15 04:35:36;;;;;;;13.63;6.45;;;512.90;1152.00;;;;;;5033836;28;20021;-75
2022/07/15 04:38:01;;;;;;;10.35;4.10;;;512.70;1152.00;;;;;;5034095;28;20033;-78
2022/07/15 04:40:27;;;;;;;12.30;8.75;;;512.80;1152.00;;;;;;5034061;28;20025;-76
2022/07/15 04:42:53;;;;;;;14.48;6.65;;;537.80;1152.00;;;;;;5033616;28;20053;-75
2022/07/15 04:45:18;;;;;;;13.27;5.20;;;538.00;1100.80;;;;;;5032684;28;20041;-77
2022/07/15 04:47:45;;;;;;;13.57;5.70;;;537.80;1126.40;;;;;;5033767;28;20025;-74
2022/07/15 04:53:08;;;;;;;55.78;12.40;;;537.90;1100.80;;;;;;5016251;28;20117;-75
2022/07/15 04:55:34;;;;;;;13.10;6.68;;;;;;;;;;5033583;28;20452;-76
2022/07/15 04:58:01;;;;;;;16.45;7.15;;;;;;;;;;5033821;28;21097;-77
2022/07/15 05:00:27;;;;;;;16.17;7.60;;;;;;;;;;5033594;28;20025;-75
2022/07/15 05:02:53;;;;;;;16.67;6.20;;;;;;;;;;5032010;28;20021;-76
2022/07/15 05:05:19;;;;;;;13.77;7.95;;;;;;;;;;5033689;28;20060;-75
2022/07/15 05:07:45;;;;;;;17.00;7.22;;;;;;;;;;5033456;28;20053;-76
2022/07/15 05:10:12;;;;;;;9.55;5.45;;;;;;;;;;5033114;28;20022;-77
2022/07/15 05:12:39;;;;;;;14.50;5.60;;;;;;;;;;5033684;28;20028;-76
2022/07/15 05:15:05;;;;;;;9.27;4.57;;;;;;;;;;5034679;28;20022;-77
2022/07/15 05:17:32;;;;;;;17.08;5.00;;;;;;;;;;5036836;28;20027;-75
2022/07/15 05:19:58;;;;;;;11.23;5.22;;;;;;;;;;5034941;28;20026;-76
2022/07/15 05:22:25;;;;;;;14.50;5.90;;;;;;;;;;5037297;28;20109;-76
2022/07/15 05:24:51;;;;;;;17.70;6.53;;;;;;;;;;5033540;28;20029;-77
2022/07/15 05:27:17;;;;;;;29.58;20.73;;;;;;;;;;5033208;28;20072;-75
2022/07/15 05:29:44;;;;;;;24.70;17.15;;;;;;;;;;5033453;28;20025;-75
2022/07/15 05:32:10;;;;;;;13.18;6.43;;;;;;;;;;5033068;28;20066;-75
2022/07/15 05:34:36;;;;;;;19.92;13.40;;;;;;;;;;5032931;28;20057;-75
2022/07/15 05:37:02;;;;;;;15.93;11.68;;;;;;;;;;5033193;28;20026;-78
2022/07/15 05:39:28;;;;;;;14.07;8.07;;;;;;;;;;5032710;28;20472;-76
2022/07/15 05:41:55;;;;;;;21.65;16.58;;;;;;;;;;5032475;28;20151;-78
2022/07/15 05:44:21;;;;;;;13.13;5.53;;;;;;;;;;5017430;28;20053;-75
2022/07/15 05:46:47;;;;;;;6.53;3.55;;;;;;;;;;5032714;28;20034;-76
2022/07/15 05:49:13;;;;;;;21.15;15.65;;;;;;;;;;5032394;28;20018;-75
2022/07/15 05:51:39;;;;;;;10.30;5.30;;;;;;;;;;5031288;28;20018;-75
2022/07/15 05:54:06;;;;;;;9.75;5.15;;;;;;;;;;5032741;28;20025;-75
2022/07/15 05:56:32;;;;;;;9.13;4.00;;;;;;;;;;5032406;28;20501;-78
2022/07/15 05:58:58;;;;;;;22.67;15.57;;;;;;;;;;5031164;28;20029;-79
2022/07/15 06:01:24;;;;;;;7.57;4.80;;;;;;;;;;5018806;28;20115;-77
2022/07/15 06:03:51;;;;;;;7.63;4.95;;;;;;;;;;5032105;28;20018;-75
2022/07/15 06:06:17;;;;;;;15.23;8.23;;;;;;;;;;5031971;28;20079;-78
2022/07/15 06:08:44;;;;;;;16.92;9.32;;;;;;;;;;5032170;28;20073;-78
2022/07/15 06:11:11;;;;;;;13.82;7.72;;;564.00;1024.00;;;;;;5032385;28;20021;-78
2022/07/15 06:13:38;;;;;;;9.95;4.60;;;;;;;;;;5030822;28;20384;-74
2022/07/15 06:16:04;;;;;;;11.10;4.93;;;;;;;;;;5032313;28;20017;-78
2022/07/15 06:18:30;;;;;;;15.60;7.00;;;564.10;998.40;;;;;;5032385;28;20067;-77
2022/07/15 06:20:56;;;;;;;13.43;4.90;;;588.90;998.40;;;;;;5041557;28;20022;-75
2022/07/15 06:23:22;;;;;;;11.57;6.43;;;;;;;;;;5042651;28;20035;-77
2022/07/15 06:25:48;;;;;;;8.45;4.35;;;;;;;;;;5043783;28;20033;-76
2022/07/15 06:28:14;;;;;;;26.75;17.67;;;;;;;;;;5028366;28;20038;-77
2022/07/15 06:30:40;;;;;;;17.33;9.25;;;;;;;;;;5031804;28;20026;-77
2022/07/15 06:33:06;;;;;;;19.35;14.07;;;;;;;;;;5031750;28;20092;-76
2022/07/15 06:35:32;;;;;;;19.50;12.98;;;;;;;;;;5029242;28;20453;-76
2022/07/15 06:37:58;;;;;;;16.15;11.20;;;;;;;;;;5031508;28;20022;-75
2022/07/15 06:40:24;;;;;;;9.45;5.32;;;614.50;870.40;;;;;;5030150;28;20527;-75
2022/07/15 06:42:50;;;;;;;13.52;8.25;;;614.40;896.00;;;;;;5031066;28;20013;-76
2022/07/15 06:45:16;;;;;;;8.23;4.15;;;;;;;;;;5031178;28;20044;-75
2022/07/15 06:47:42;;;;;;;23.65;10.68;;;;;;;;;;5031305;28;20021;-77
2022/07/15 06:50:09;;;;;;;26.05;19.95;;;;;;;;;;5032850;28;20029;-76
2022/07/15 06:52:35;;;;;;;25.00;19.98;;;614.70;870.40;;;;;;5031493;28;20032;-78
2022/07/15 06:55:01;;;;;;;25.70;20.13;;;614.70;870.40;;;;;;5030945;28;20021;-77
2022/07/15 06:57:28;;;;;;;67.72;57.88;;;;;;;;;;5031141;28;20032;-78
2022/07/15 06:59:54;;;;;;;67.90;54.90;;;;;;;;;;5030762;28;20112;-77
2022/07/15 07:02:20;;;;;;;31.70;23.75;;;;;;;;;;5028238;28;20021;-78
2022/07/15 07:04:46;;;;;;;31.85;28.52;;;;;;;;;;5031440;28;20032;-77
2022/07/15 07:07:13;;;;;;;33.97;21.17;;;;;;;;;;5030854;28;20021;-79
2022/07/15 07:09:39;;;;;;;34.30;30.55;;;;;;;;;;5030392;28;20390;-78
2022/07/15 07:12:05;;;;;;;24.85;22.15;;;;;;;;;;5028119;28;20053;-78
2022/07/15 07:14:31;;;;;;;37.70;28.20;;;;;;;;;;5029870;28;20026;-76
2022/07/15 07:16:57;;;;;;;18.20;11.32;;;;;;;;;;5030040;28;20101;-77
2022/07/15 07:19:23;;;;;;;25.70;19.73;;;;;;;;;;5030323;28;20100;-79
2022/07/15 07:21:49;;;;;;;22.70;19.48;;;;;;;;;;5029187;28;20488;-79
2022/07/15 07:24:15;;;;;;;23.20;16.50;;;;;;;;;;5030866;28;20022;-76
2022/07/15 07:26:41;;;;;;;14.63;8.60;;;;;;;;;;5030231;28;20033;-77
2022/07/15 07:29:09;;;;;;;19.73;15.10;;;;;;;;;;5030815;28;20019;-77
2022/07/15 07:31:35;;;;;;;12.85;6.65;;;;;;;;;;5030625;28;20104;-76
2022/07/15 07:34:01;;;;;;;23.75;18.42;;;;;;;;;;5030490;28;20026;-76
2022/07/15 07:36:28;;;;;;;10.82;5.05;;;;;;;;;;5030746;28;20025;-78
2022/07/15 07:38:54;;;;;;;35.10;9.23;;;;;;;;;;5030486;28;20032;-77
2022/07/15 07:41:20;;;;;;;22.05;14.80;;;;;;;;;;5030286;28;20033;-76
2022/07/15 07:43:46;;;;;;;13.82;9.90;;;;;;;;;;5030287;28;20472;-76
2022/07/15 07:46:13;;;;;;;18.75;11.77;;;;;;;;;;5029952;28;20409;-77
2022/07/15 07:48:40;;;;;;;18.27;11.38;;;;;;;;;;5030230;28;20018;-78
2022/07/15 07:51:06;;;;;;;9.43;5.85;;;;;;;;;;5029980;28;20396;-77
2022/07/15 07:53:32;;;;;;;16.83;12.80;;;;;;;;;;5030041;28;20473;-77
2022/07/15 07:55:58;;;;;;;15.43;9.02;;;;;;;;;;5030248;28;20531;-77
2022/07/15 07:58:24;;;;;;;21.70;12.90;;;665.70;742.40;;;;;;5029962;28;20024;-76
2022/07/15 08:00:52;;;;;;;17.73;8.52;;;640.90;742.40;;;;;;5029018;28;20109;-78
2022/07/15 08:03:18;;;;;;;15.63;10.63;;;640.90;742.40;;;;;;5028735;28;20029;-77
2022/07/15 08:05:45;;;;;;;16.52;6.80;;;;;;;;;;5032866;28;20480;-78
2022/07/15 08:08:19;;;;;;;11.65;5.07;;;;;;;;;;5033430;28;20099;-80
2022/07/15 08:10:46;;;;;;;12.77;8.20;;;;;;;;;;5034046;28;20539;-76
2022/07/15 08:13:15;;;;;;;11.82;10.43;;;;;;;;;;5033410;28;20057;-79
2022/07/15 08:15:42;;;;;;;18.73;11.95;;;;;;;;;;5034868;28;20026;-81
2022/07/15 08:18:08;;;;;;;12.93;7.47;;;;;;;;;;5035279;28;20030;-79
2022/07/15 08:20:35;;;;;;;9.20;5.90;;;;;;;;;;5033788;28;20022;-80
2022/07/15 08:23:02;;;;;;;8.60;4.85;;;;;;;;;;5034127;28;20021;-78
2022/07/15 08:25:29;;;;;;;12.80;8.63;;;;;;;;;;5032357;28;20029;-77
2022/07/15 08:27:56;;;;;;;27.70;24.13;;;;;;;;;;5033542;28;20017;-77
2022/07/15 08:30:23;;;;;;;23.38;17.90;;;;;;;;;;5033770;28;20022;-75
2022/07/15 08:32:49;;;;;;;29.67;21.15;;;;;;;;;;5033741;28;20183;-75
2022/07/15 08:35:15;;;;;;;35.55;31.30;;;;;;;;;;5033207;28;20481;-79
2022/07/15 08:37:41;;;;;;;13.00;6.85;;;;;;;;;;5033822;28;20021;-76
2022/07/15 08:40:09;;;;;;;13.95;9.05;;;;;;;;;;5034012;28;20473;-76
2022/07/15 08:42:35;;;;;;;7.35;4.43;;;;;;;;;;5032207;28;20488;-75
2022/07/15 08:45:01;;;;;;;7.03;2.92;;;;;;;;;;5027674;28;20040;-76
2022/07/15 08:47:31;;;;;;;15.68;11.48;;;;;;;;;;5028234;28;20519;-75
2022/07/15 08:49:58;;;;;;;11.05;6.15;;;;;;;;;;5033546;28;20093;-75
2022/07/15 08:52:25;;;;;;;8.73;4.53;;;;;;;;;;5033483;28;20025;-75
2022/07/15 08:54:51;;;;;;;18.48;12.88;;;;;;;;;;5029350;28;20431;-75
2022/07/15 08:57:18;;;;;;;13.02;7.55;;;;;;;;;;5033493;28;20033;-76
2022/07/15 08:59:47;;;;;;;25.75;19.77;;;;;;;;;;5032740;28;20037;-76
2022/07/15 09:02:14;;;;;;;14.15;6.80;;;;;;;;;;5033002;28;20104;-75
2022/07/15 09:04:59;;;;;;;10.75;5.35;;;;;;;;;;5033213;28;20465;-74
2022/07/15 09:07:25;;;;;;;13.35;7.22;;;;;;;;;;5033240;28;20077;-76
2022/07/15 09:09:52;;;;;;;20.92;10.27;;;;;;;;;;5033230;28;20535;-75
2022/07/15 09:12:17;;;;;;;14.82;9.85;;;692.10;563.20;;;;;;5033199;28;20029;-75
2022/07/15 09:14:44;;;;;;;10.32;5.82;;;692.00;563.20;;;;;;5032372;28;20026;-76
2022/07/15 09:17:10;;;;;;;10.27;6.53;;;691.80;537.60;;;;;;5032115;28;20030;-75
2022/07/15 09:19:55;;;;;;;7.32;4.05;;;;;;;;;;5031670;28;20029;-76
2022/07/15 09:22:21;;;;;;;10.10;6.70;;;;;;;;;;5019764;28;20022;-75
2022/07/15 09:24:50;;;;;;;8.73;4.28;;;;;;;;;;5018255;28;20060;-75
2022/07/15 09:27:29;;;;;;;6.22;3.90;;;;;;;;;;5032263;28;20029;-75
2022/07/15 09:38:12;;;;;;;7.93;4.38;;;;;;;;;;5032472;28;20036;-76
2022/07/15 09:40:48;;;;;;;4.50;2.88;;;;;;;;;;5032157;28;20452;-76
2022/07/15 09:43:14;;;;;;;6.93;4.22;;;;;;;;;;5032696;28;20033;-75
2022/07/15 09:45:40;;;;;;;10.00;3.40;;;;;;;;;;5028061;28;20436;-75
2022/07/15 09:48:14;;;;;;;7.05;2.67;;;;;;;;;;5031750;28;20477;-76
2022/07/15 09:50:40;;;;;;;4.40;3.08;;;;;;;;;;5031941;28;20049;-76
2022/07/15 09:53:13;;;;;;;4.45;1.95;;;;;;;;;;5032012;28;20052;-75
2022/07/15 09:55:39;;;;;;;;;;;;;;;;;;5032366;28;20100;-75
2022/07/15 09:58:05;;;;;;;4.70;1.83;;;;;;;;;;5031756;28;20420;-75
2022/07/15 10:00:32;;;;;;;6.65;2.80;;;;;;;;;;5031924;28;20025;-75
2022/07/15 10:02:58;;;;;;;5.28;2.70;;;;;;;;;;5029398;28;20022;-76
2022/07/15 10:05:27;;;;;;;7.95;3.47;;;;;;;;;;5030022;28;20074;-75
2022/07/15 10:07:56;;;;;;;7.05;2.03;;;;;;;;;;5031297;28;20481;-75
2022/07/15 10:10:23;;;;;;;6.85;3.22;;;;;;;;;;5029559;28;20124;-75
2022/07/15 10:12:52;;;;;;;5.55;1.70;;;;;;;;;;5031615;28;20013;-76
2022/07/15 10:15:30;;;;;;;4.97;1.83;;;;;;;;;;5031294;28;20044;-76
2022/07/15 10:18:17;;;;;;;2.65;1.80;;;;;;;;;;5031487;28;20021;-75
2022/07/15 10:21:01;;;;;;;4.38;1.85;;;;;;;;;;5029478;28;20504;-74
2022/07/15 10:23:32;;;;;;;7.93;2.50;;;;;;;;;;5030623;28;20041;-75
2022/07/15 10:26:18;;;;;;;5.20;2.10;;;;;;;;;;5031303;28;20031;-74
2022/07/15 10:28:50;;;;;;;15.43;3.63;;;;;;;;;;5028584;28;20075;-74
2022/07/15 10:31:18;;;;;;;6.05;3.13;;;;;;;;;;5030264;28;20485;-75
2022/07/15 10:34:07;;;;;;;8.23;2.40;;;;;;;;;;5030688;28;20490;-76
2022/07/15 10:36:49;;;;;;;7.72;2.45;;;;;;;;;;5029569;28;20025;-72
2022/07/15 10:39:16;;;;;;;6.00;2.30;;;;;;;;;;5025348;28;20452;-76
2022/07/15 10:41:48;;;;;;;5.10;2.15;;;;;;;;;;5029925;28;20024;-75
2022/07/15 10:44:14;;;;;;;7.07;2.50;;;;;;;;;;5028411;28;20037;-75
2022/07/15 10:46:40;;;;;;;5.22;2.17;;;;;;;;;;5030535;28;20286;-76
2022/07/15 10:49:06;;;;;;;4.50;2.05;;;;;;;;;;5029861;28;20032;-75
2022/07/15 10:51:35;;;;;;;6.72;1.40;;;;;;;;;;5029563;28;20017;-75
2022/07/15 10:54:05;;;;;;;4.88;1.67;;;;;;;;;;5029484;28;20105;-75
2022/07/15 10:56:31;;;;;;;4.90;2.70;;;;;;;;;;5029835;28;20053;-74
2022/07/15 10:59:16;;;;;;;10.13;2.17;;;;;;;;;;5030283;28;20477;-74
2022/07/15 11:01:43;;;;;;;9.82;3.30;;;;;;;;;;5029145;28;20526;-75
2022/07/15 11:04:14;;;;;;;6.82;2.33;;;;;;;;;;5030779;28;20025;-75
2022/07/15 11:06:59;;;;;;;8.32;2.05;;;;;;;;;;5029406;28;20029;-75
2022/07/15 11:09:44;;;;;;;7.43;1.73;;;;;;;;;;5027035;28;20424;-75
2022/07/15 11:12:11;;;;;;;4.80;2.42;;;;;;;;;;5029248;28;20053;-75
2022/07/15 11:14:56;;;;;;;7.57;2.47;;;;;;;;;;5029582;28;20044;-74
2022/07/15 11:17:38;;;;;;;7.07;2.88;;;;;;;;;;5029092;28;20021;-75
2022/07/15 11:20:08;;;;;;;5.10;2.60;;;;;;;;;;5027881;28;20064;-74
2022/07/15 11:22:34;;;;;;;7.10;2.58;;;;;;;;;;5029765;28;20028;-75
2022/07/15 11:25:01;;;;;;;8.98;2.55;;;;;;;;;;5029268;28;20043;-75
2022/07/15 11:27:27;;;;;;;6.13;1.52;;;;;;;;;;5029447;28;20115;-74
2022/07/15 11:30:02;;;;;;;7.68;2.20;;;;;;;;;;5030266;28;20101;-77
2022/07/15 11:32:29;;;;;;;6.55;1.92;;;;;;;;;;5029638;28;20068;-77
2022/07/15 11:34:56;;;;;;;7.93;1.90;;;;;;;;;;5027143;28;20025;-78
2022/07/15 11:37:26;;;;;;;9.25;2.30;;;;;;;;;;5030411;28;20033;-73
2022/07/15 11:40:06;;;;;;;6.40;2.15;;;;;;;;;;5029622;28;20024;-74
2022/07/15 11:45:31;;;;;;;8.52;1.88;;;;;;;;;;5034259;28;20063;-74
2022/07/15 11:47:57;;;;;;;5.35;1.70;;;;;;;;;;5034823;28;21146;-77
2022/07/15 11:50:23;;;;;;;5.28;1.92;;;;;;;;;;5034034;28;20476;-77
2022/07/15 11:52:53;;;;;;;9.02;2.65;;;;;;;;;;5034111;28;20044;-78
2022/07/15 11:55:19;;;;;;;3.30;1.88;;;;;;;;;;5030106;28;20022;-78
2022/07/15 11:57:49;;;;;;;4.60;2.00;;;;;;;;;;5014674;28;20499;-76
2022/07/15 12:00:15;;;;;;;7.20;3.67;;;;;;;;;;5041014;28;20052;-78
2022/07/15 12:02:41;;;;;;;6.10;2.40;;;;;;;;;;5038420;28;20014;-76
2022/07/15 12:05:08;;;;;;;5.30;1.85;;;;;;;;;;5044880;28;20477;-75
2022/07/15 12:07:45;;;;;;;3.90;1.88;;;;;;;;;;5041178;28;20025;-75
2022/07/15 12:10:11;;;;;;;4.95;1.73;;;;;;;;;;5030690;28;20052;-75
2022/07/15 12:12:54;;;;;;;8.85;3.70;;;;;;;;;;5033685;28;20017;-76
2022/07/15 12:15:20;;;;;;;5.50;2.35;;;;;;;;;;5033378;28;20021;-75
2022/07/15 12:17:47;;;;;;;2.58;1.55;;;;;;;;;;5032634;28;20036;-74
2022/07/15 12:20:13;;;;;;;4.22;2.10;;;;;;;;;;5032555;28;20532;-74
2022/07/15 12:22:59;;;;;;;7.22;2.45;;;;;;;;;;5034104;28;20477;-74
2022/07/15 12:25:25;;;;;;;6.43;2.33;;;;;;;;;;5033740;28;20129;-75
2022/07/15 12:27:51;;;;;;;6.07;1.73;;;;;;;;;;5023193;28;20160;-74
2022/07/15 12:30:17;;;;;;;7.80;2.25;;;;;;;;;;5029808;28;20039;-76
2022/07/15 12:32:43;;;;;;;7.47;2.22;;;;;;;;;;5033778;28;20025;-75
2022/07/15 12:35:09;;;;;;;7.55;2.35;;;;;;;;;;5033894;28;20019;-74
2022/07/15 12:37:35;;;;;;;6.03;2.03;;;;;;;;;;5032562;28;20022;-75
2022/07/15 12:40:08;;;;;;;4.53;1.70;;;819.80;230.40;;;;;;5032428;28;20477;-74
2022/07/15 12:42:49;;;;;;;8.10;2.22;;;819.60;230.40;;;;;;5033605;28;20033;-74
2022/07/15 12:45:23;;;;;;;9.02;2.20;;;819.60;230.40;;;;;;5033761;28;20477;-75
2022/07/15 12:48:08;;;;;;;6.82;1.90;;;819.50;230.40;;;;;;5031995;28;20021;-74
2022/07/15 12:50:51;;;;;;;9.38;2.20;;;819.80;230.40;;;;;;5032959;28;20083;-74
2022/07/15 12:53:20;;;;;;;11.37;2.73;;;819.80;230.40;;;;;;5033037;28;20026;-74
2022/07/15 12:55:48;;;;;;;7.97;2.17;;;;;;;;;;5032230;28;20788;-75
2022/07/15 12:58:15;;;;;;;3.13;1.83;;;;;;;;;;5032092;28;20021;-75
2022/07/15 13:00:43;;;;;;;9.15;2.47;;;844.80;256.00;;;;;;5033642;28;20071;-75
2022/07/15 13:03:16;;;;;;;8.00;1.98;;;820.00;230.40;;;;;;5018271;28;20022;-74
2022/07/15 13:05:43;;;;;;;7.82;2.10;;;;;;;;;;5041671;28;20033;-74
2022/07/15 13:08:14;;;;;;;8.73;2.30;;;;;;;;;;5039404;28;20129;-74
2022/07/15 13:10:41;;;;;;;4.97;2.00;;;;;;;;;;5028279;28;20022;-75
2022/07/15 13:13:07;;;;;;;5.80;2.17;;;;;;;;;;5028488;28;20021;-75
2022/07/15 13:15:34;;;;;;;6.70;2.35;;;;;;;;;;5033392;28;20452;-74
2022/07/15 13:18:00;;;;;;;3.58;2.33;;;896.10;256.00;;;;;;5031740;28;20354;-75
2022/07/15 13:20:26;;;;;;;6.25;2.67;;;896.50;256.00;;;;;;5031532;28;20030;-74
2022/07/15 13:22:53;;;;;;;6.95;2.47;;;922.10;281.60;;;;;;5032789;28;21068;-74
2022/07/15 13:25:19;;;;;;;7.88;1.88;;;947.90;281.60;;;;;;5031550;28;20030;-75
2022/07/15 13:27:46;;;;;;;2.65;1.85;;;;;;;;;;5031398;28;20032;-75
2022/07/15 13:30:12;;;;;;;7.20;2.72;;;;;;;;;;5032708;28;20025;-75
2022/07/15 13:32:38;;;;;;;6.97;2.10;;;;;;;;;;5032676;28;20112;-75
2022/07/15 13:35:05;;;;;;;8.32;2.13;;;;;;;;;;5031422;28;20036;-75
2022/07/15 13:37:31;;;;;;;4.18;2.10;;;;;;;;;;5032603;28;20040;-74
2022/07/15 13:39:58;;;;;;;5.57;2.45;;;;;;;;;;5028175;28;20101;-76
2022/07/15 13:42:28;;;;;;;9.50;2.25;;;;;;;;;;5011686;28;20079;-76
2022/07/15 13:44:54;;;;;;;5.97;2.17;;;;;;;;;;5017261;28;20349;-76
2022/07/15 13:47:21;;;;;;;5.93;1.90;;;;;;;;;;5028283;28;20045;-77
2022/07/15 13:52:31;;;;;;;10.63;2.47;;;;;;;;;;5032522;28;20040;-76
2022/07/15 13:54:57;;;;;;;5.53;2.63;;;;;;;;;;5026103;28;20022;-76
2022/07/15 13:57:23;;;;;;;7.78;2.08;;;;;;;;;;5023952;28;21079;-75
2022/07/15 13:59:49;;;;;;;6.57;2.28;;;1101.50;384.00;;;;;;5032639;28;20108;-76
2022/07/15 14:02:15;;;;;;;9.25;2.10;;;;;;;;;;5032505;28;20021;-76
2022/07/15 14:04:41;;;;;;;9.77;2.30;;;;;;;;;;5032296;28;20453;-76
2022/07/15 14:07:08;;;;;;;8.73;1.98;;;;;;;;;;5031712;28;20114;-76
2022/07/15 14:09:34;;;;;;;6.63;2.42;;;;;;;;;;5032289;28;20446;-76
2022/07/15 14:12:01;;;;;;;7.50;2.25;;;;;;;;;;5030574;28;20109;-77
2022/07/15 14:14:27;;;;;;;7.25;1.55;;;;;;;;;;5032011;28;20021;-76
2022/07/15 14:16:53;;;;;;;5.38;2.08;;;;;;;;;;5027236;28;20045;-77
2022/07/15 14:19:20;;;;;;;5.57;2.00;;;;;;;;;;5021868;28;20053;-76